createdAt,value
2023-04-14T00:00:38.747Z,7.60
2023-04-14T00:04:40.817Z,7.75
2023-04-14T00:08:42.390Z,7.13
2023-04-14T00:12:44.139Z,8.32
2023-04-14T00:16:46.753Z,10.18
2023-04-14T00:20:48.294Z,7.72
2023-04-14T00:24:50.754Z,7.90
2023-04-14T00:28:52.265Z,8.52
2023-04-14T00:32:53.741Z,8.80
2023-04-14T00:36:55.239Z,11.80
2023-04-14T00:40:56.667Z,6.13
2023-04-14T00:44:58.084Z,7.72
2023-04-14T00:48:59.673Z,7.22
2023-04-14T00:53:02.324Z,8.82
2023-04-14T00:57:05.246Z,8.23
2023-04-14T01:01:08.057Z,8.15
2023-04-14T01:05:09.777Z,8.52
2023-04-14T01:09:12.111Z,8.15
2023-04-14T01:13:33.486Z,8.73
2023-04-14T01:18:10.031Z,8.38
2023-04-14T01:22:14.271Z,8.32
2023-04-14T01:26:36.142Z,10.13
2023-04-14T01:30:56.044Z,11.35
2023-04-14T01:35:00.848Z,8.32
2023-04-14T01:39:06.727Z,8.63
2023-04-14T01:43:12.874Z,12.75
2023-04-14T01:47:17.615Z,13.05
2023-04-14T01:51:21.392Z,11.15
2023-04-14T01:55:26.559Z,8.98
2023-04-14T01:59:30.517Z,10.02
2023-04-14T02:03:32.784Z,9.95
2023-04-14T02:07:35.227Z,9.93
2023-04-14T02:11:38.361Z,7.22
2023-04-14T02:15:40.856Z,7.13
2023-04-14T02:19:43.935Z,6.85
2023-04-14T02:23:45.404Z,7.60
2023-04-14T02:28:00.400Z,7.80
2023-04-14T02:32:07.316Z,8.90
2023-04-14T02:36:20.485Z,6.95
2023-04-14T02:40:26.879Z,10.15
2023-04-14T02:44:38.767Z,8.07
2023-04-14T02:48:42.928Z,9.15
2023-04-14T02:52:51.254Z,9.45
2023-04-14T02:56:53.475Z,7.15
2023-04-14T03:00:56.404Z,6.80
2023-04-14T03:04:58.149Z,9.30
2023-04-14T03:09:01.260Z,7.65
2023-04-14T03:13:05.064Z,8.65
2023-04-14T03:17:08.023Z,9.52
2023-04-14T03:21:09.546Z,7.78
2023-04-14T03:25:12.355Z,6.82
2023-04-14T03:29:15.745Z,7.60
2023-04-14T03:33:23.307Z,5.68
2023-04-14T03:37:27.295Z,7.20
2023-04-14T03:41:29.593Z,6.45
2023-04-14T03:45:32.241Z,8.98
2023-04-14T03:49:38.298Z,6.97
2023-04-14T03:53:43.157Z,8.15
2023-04-14T03:57:46.292Z,9.20
2023-04-14T04:01:48.708Z,7.20
2023-04-14T04:05:50.834Z,8.40
2023-04-14T04:09:53.756Z,8.15
2023-04-14T04:13:56.234Z,5.22
2023-04-14T04:17:59.807Z,6.45
2023-04-14T04:22:03.331Z,7.43
2023-04-14T04:26:05.921Z,7.47
2023-04-14T04:30:09.061Z,7.95
2023-04-14T04:34:11.742Z,6.00
2023-04-14T04:38:13.212Z,9.27
2023-04-14T04:42:14.667Z,8.82
2023-04-14T04:46:37.679Z,6.80
2023-04-14T04:50:40.604Z,8.38
2023-04-14T04:54:42.137Z,9.30
2023-04-14T04:58:43.605Z,5.97
2023-04-14T05:02:45.792Z,9.93
2023-04-14T05:06:47.470Z,8.43
2023-04-14T05:10:48.892Z,11.75
2023-04-14T05:14:50.375Z,7.95
2023-04-14T05:18:52.277Z,7.43
2023-04-14T05:22:53.719Z,7.72
2023-04-14T05:27:12.446Z,8.23
2023-04-14T05:35:19.638Z,8.02
2023-04-14T05:39:21.367Z,6.93
2023-04-14T05:43:22.767Z,7.18
2023-04-14T05:47:24.267Z,6.32
2023-04-14T05:51:27.681Z,5.05
2023-04-14T05:55:29.141Z,9.25
2023-04-14T05:59:30.648Z,8.48
2023-04-14T06:03:32.356Z,9.63
2023-04-14T06:07:34.492Z,7.40
2023-04-14T06:11:35.955Z,8.05
2023-04-14T06:15:37.547Z,8.23
2023-04-14T06:19:39.211Z,7.82
2023-04-14T06:23:40.898Z,7.88
2023-04-14T06:27:42.476Z,9.25
2023-04-14T06:31:44.075Z,6.15
2023-04-14T06:35:45.542Z,8.57
2023-04-14T06:39:46.988Z,7.38
2023-04-14T06:43:48.389Z,11.32
2023-04-14T06:47:49.887Z,20.48
2023-04-14T06:51:51.510Z,8.70
2023-04-14T06:55:59.214Z,7.75
2023-04-14T07:00:01.085Z,5.68
2023-04-14T07:04:06.861Z,9.77
2023-04-14T07:08:09.227Z,7.03
2023-04-14T07:12:14.626Z,6.93
2023-04-14T07:16:16.357Z,9.95
2023-04-14T07:20:17.928Z,9.68
2023-04-14T07:24:19.416Z,11.10
2023-04-14T07:28:22.079Z,8.98
2023-04-14T07:32:23.633Z,9.43
2023-04-14T07:36:25.365Z,8.15
2023-04-14T07:40:26.935Z,6.30
2023-04-14T07:44:28.409Z,6.88
2023-04-14T07:48:34.432Z,6.13
2023-04-14T07:52:36.129Z,6.30
2023-04-14T07:56:37.921Z,4.47
2023-04-14T08:00:39.385Z,4.95
2023-04-14T08:04:41.179Z,8.02
2023-04-14T08:08:43.250Z,5.63
2023-04-14T08:12:44.674Z,6.53
2023-04-14T08:16:46.179Z,8.18
2023-04-14T08:20:47.737Z,5.03
2023-04-14T08:24:51.496Z,7.88
2023-04-14T08:28:54.205Z,5.47
2023-04-14T08:32:57.034Z,7.15
2023-04-14T08:37:00.824Z,4.78
2023-04-14T08:41:08.004Z,21.02
2023-04-14T08:45:09.665Z,5.43
2023-04-14T08:49:18.707Z,13.68
2023-04-14T08:53:21.613Z,4.90
2023-04-14T08:57:26.154Z,4.60
2023-04-14T09:01:29.508Z,6.78
2023-04-14T09:05:31.837Z,5.03
2023-04-14T09:09:33.946Z,5.88
2023-04-14T09:13:36.382Z,8.02
2023-04-14T09:17:37.887Z,7.70
2023-04-14T09:21:53.631Z,5.88
2023-04-14T09:25:56.548Z,5.43
2023-04-14T09:29:58.428Z,7.03
2023-04-14T09:34:00.254Z,8.82
2023-04-14T09:38:02.011Z,7.05
2023-04-14T09:42:04.242Z,7.55
2023-04-14T09:46:08.642Z,7.45
2023-04-14T09:50:10.289Z,7.28
2023-04-14T09:54:12.077Z,8.35
2023-04-14T09:58:13.613Z,9.63
2023-04-14T10:02:15.704Z,9.38
2023-04-14T10:06:19.492Z,7.65
2023-04-14T10:10:22.479Z,6.53
2023-04-14T10:14:23.906Z,9.25
2023-04-14T10:18:25.407Z,6.25
2023-04-14T10:22:27.989Z,7.47
2023-04-14T10:26:30.048Z,8.63
2023-04-14T10:30:32.389Z,8.43
2023-04-14T10:34:34.501Z,9.63
2023-04-14T10:38:44.403Z,9.18
2023-04-14T10:46:56.703Z,7.18
2023-04-14T10:50:59.482Z,8.93
2023-04-14T10:55:08.832Z,7.47
2023-04-14T10:59:10.320Z,7.93
2023-04-14T11:03:16.310Z,8.50
2023-04-14T11:07:21.703Z,6.65
2023-04-14T11:11:28.061Z,5.85
2023-04-14T11:15:45.723Z,9.23
2023-04-14T11:19:47.522Z,9.20
2023-04-14T11:23:49.249Z,8.48
2023-04-14T11:27:51.737Z,7.95
2023-04-14T11:32:04.416Z,9.82
2023-04-14T11:36:07.845Z,7.10
2023-04-14T11:40:13.676Z,7.35
2023-04-14T11:44:22.611Z,6.85
2023-04-14T11:48:24.118Z,8.43
2023-04-14T11:52:25.664Z,8.13
2023-04-14T11:56:28.595Z,7.32
2023-04-14T12:00:30.204Z,13.48
2023-04-14T12:04:31.773Z,9.40
2023-04-14T12:08:33.884Z,8.32
2023-04-14T12:12:35.324Z,8.25
2023-04-14T12:16:37.082Z,8.20
2023-04-14T12:20:47.283Z,6.97
2023-04-14T12:24:48.803Z,6.93
2023-04-14T12:28:56.415Z,7.85
2023-04-14T12:32:58.041Z,9.95
2023-04-14T12:36:59.547Z,7.97
2023-04-14T12:41:01.631Z,6.30
2023-04-14T12:45:04.513Z,7.72
2023-04-14T12:49:06.142Z,8.23
2023-04-14T12:53:28.428Z,5.72
2023-04-14T12:57:31.115Z,7.97
2023-04-14T13:01:32.821Z,9.65
2023-04-14T13:05:34.347Z,8.43
2023-04-14T13:09:36.123Z,6.88
2023-04-14T13:13:37.562Z,11.77
2023-04-14T13:17:39.147Z,9.88
2023-04-14T13:21:41.419Z,8.02
2023-04-14T13:25:42.862Z,9.35
2023-04-14T13:29:44.556Z,7.53
2023-04-14T13:33:45.997Z,7.43
2023-04-14T13:37:47.995Z,7.70
2023-04-14T13:41:49.591Z,6.00
2023-04-14T13:45:51.702Z,10.15
2023-04-14T13:49:53.144Z,7.90
2023-04-14T13:53:56.250Z,7.88
2023-04-14T13:57:57.763Z,6.88
2023-04-14T14:01:59.438Z,7.93
2023-04-14T14:06:01.429Z,9.48
2023-04-14T14:10:04.255Z,10.13
2023-04-14T14:14:05.700Z,8.32
2023-04-14T14:18:07.247Z,8.48
2023-04-14T14:22:08.947Z,8.80
2023-04-14T14:26:11.509Z,9.95
2023-04-14T14:30:13.224Z,9.27
2023-04-14T14:34:14.860Z,10.05
2023-04-14T14:38:16.296Z,9.63
2023-04-14T14:42:17.795Z,9.25
2023-04-14T14:46:19.388Z,7.72
2023-04-14T14:50:21.340Z,7.10
2023-04-14T14:54:23.014Z,7.95
2023-04-14T14:58:24.464Z,6.78
2023-04-14T15:02:26.063Z,6.70
2023-04-14T15:06:27.737Z,6.53
2023-04-14T15:10:29.347Z,8.18
2023-04-14T15:14:31.248Z,11.02
2023-04-14T15:18:33.203Z,8.32
2023-04-14T15:22:35.853Z,7.63
2023-04-14T15:26:37.872Z,7.20
2023-04-14T15:30:39.438Z,8.07
2023-04-14T15:34:40.993Z,6.80
2023-04-14T15:38:42.546Z,9.50
2023-04-14T15:42:44.064Z,9.90
2023-04-14T15:46:46.224Z,7.28
2023-04-14T15:50:47.636Z,7.22
2023-04-14T15:54:49.128Z,8.45
2023-04-14T15:58:50.932Z,8.38
2023-04-14T16:02:52.568Z,9.25
2023-04-14T16:06:54.886Z,8.40
2023-04-14T16:10:56.348Z,7.43
2023-04-14T16:14:57.887Z,7.40
2023-04-14T16:18:59.438Z,9.98
2023-04-14T16:23:01.051Z,9.43
2023-04-14T16:27:02.512Z,11.88
2023-04-14T16:31:04.036Z,7.32
2023-04-14T16:35:05.971Z,6.25
2023-04-14T16:39:14.875Z,5.22
2023-04-14T16:43:16.535Z,7.10
2023-04-14T16:47:18.343Z,6.65
2023-04-14T16:51:19.971Z,7.45
2023-04-14T16:55:21.495Z,10.02
2023-04-14T16:59:22.993Z,8.43
2023-04-14T17:03:24.569Z,7.53
2023-04-14T17:07:26.446Z,7.22
2023-04-14T17:11:27.913Z,10.05
2023-04-14T17:15:29.328Z,7.90
2023-04-14T17:19:31.270Z,9.07
2023-04-14T17:23:37.576Z,8.32
2023-04-14T17:27:39.040Z,8.50
2023-04-14T17:31:42.176Z,10.75
2023-04-14T17:35:43.770Z,6.35
2023-04-14T17:39:48.961Z,7.40
2023-04-14T17:43:50.565Z,8.63
2023-04-14T17:47:53.705Z,11.88
2023-04-14T17:52:01.213Z,13.85
2023-04-14T17:56:02.711Z,10.75
2023-04-14T18:00:05.852Z,9.00
2023-04-14T18:04:07.555Z,9.13
2023-04-14T18:08:09.012Z,7.50
2023-04-14T18:12:10.926Z,9.43
2023-04-14T18:16:12.368Z,8.48
2023-04-14T18:20:14.551Z,6.85
2023-04-14T18:28:20.564Z,9.27
2023-04-14T18:32:25.011Z,8.90
2023-04-14T18:36:27.098Z,10.85
2023-04-14T18:40:28.691Z,11.13
2023-04-14T18:44:30.280Z,11.50
2023-04-14T18:48:31.908Z,13.38
2023-04-14T18:52:33.569Z,14.95
2023-04-14T18:56:35.056Z,17.35
2023-04-14T19:00:36.652Z,16.45
2023-04-14T19:04:38.089Z,14.95
2023-04-14T19:08:41.078Z,18.10
2023-04-14T19:12:42.697Z,20.42
2023-04-14T19:16:45.225Z,20.00
2023-04-14T19:20:47.741Z,18.58
2023-04-14T19:24:49.981Z,15.57
2023-04-14T19:28:53.414Z,16.92
2023-04-14T19:32:55.027Z,16.63
2023-04-14T19:36:57.577Z,13.80
2023-04-14T19:40:59.701Z,19.42
2023-04-14T19:45:01.264Z,17.20
2023-04-14T19:49:03.354Z,14.77
2023-04-14T19:53:06.117Z,13.02
2023-04-14T19:57:08.547Z,14.98
2023-04-14T20:01:11.284Z,16.65
2023-04-14T20:05:12.886Z,13.35
2023-04-14T20:09:14.360Z,14.50
2023-04-14T20:13:16.107Z,14.95
2023-04-14T20:17:18.408Z,18.88
2023-04-14T20:21:19.985Z,23.23
2023-04-14T20:25:22.513Z,19.73
2023-04-14T20:29:25.250Z,21.40
2023-04-14T20:33:28.587Z,14.15
2023-04-14T20:37:30.178Z,14.60
2023-04-14T20:41:34.858Z,14.07
2023-04-14T20:45:36.579Z,16.63
2023-04-14T20:49:38.156Z,17.27
2023-04-14T20:53:39.742Z,16.17
2023-04-14T20:57:41.929Z,16.13
2023-04-14T21:01:46.014Z,16.83
2023-04-14T21:05:48.009Z,17.98
2023-04-14T21:09:49.442Z,17.73
2023-04-14T21:15:30.666Z,15.00
2023-04-14T21:18:13.122Z,16.00
2023-04-14T21:22:14.555Z,18.45
2023-04-14T21:26:16.599Z,14.80
2023-04-14T21:30:18.049Z,14.70
2023-04-14T21:34:19.851Z,15.30
2023-04-14T21:38:21.894Z,16.58
2023-04-14T21:42:23.362Z,16.40
2023-04-14T21:46:25.164Z,16.70
2023-04-14T21:50:26.786Z,15.00
2023-04-14T21:54:30.070Z,15.60
2023-04-14T21:58:31.500Z,19.92
2023-04-14T22:02:33.036Z,18.98
2023-04-14T22:06:35.312Z,19.42
2023-04-14T22:10:38.172Z,18.27
2023-04-14T22:14:40.103Z,20.30
2023-04-14T22:18:42.050Z,19.70
2023-04-14T22:22:43.535Z,22.73
2023-04-14T22:26:44.947Z,27.08
2023-04-14T22:30:46.596Z,22.80
2023-04-14T22:34:48.308Z,24.33
2023-04-14T22:38:49.804Z,25.60
2023-04-14T22:42:51.618Z,28.60
2023-04-14T22:46:53.312Z,25.67
2023-04-14T22:50:54.943Z,29.42
2023-04-14T22:54:56.461Z,27.95
2023-04-14T22:58:58.281Z,27.85
2023-04-14T23:03:00.382Z,27.45
2023-04-14T23:07:02.070Z,27.60
2023-04-14T23:11:03.737Z,37.47
2023-04-14T23:15:06.179Z,32.20
2023-04-14T23:19:07.668Z,30.60
2023-04-14T23:23:12.095Z,35.25
2023-04-14T23:27:13.602Z,29.83
2023-04-14T23:31:17.278Z,31.88
2023-04-14T23:35:19.394Z,34.67
2023-04-14T23:39:20.855Z,33.70
2023-04-14T23:43:22.255Z,42.67
2023-04-14T23:47:24.007Z,42.38
2023-04-14T23:51:26.996Z,42.65
2023-04-14T23:55:28.685Z,39.58
2023-04-14T23:59:30.149Z,43.67
